sensor_id;sensor_type;location;lat;lon;timestamp;pressure;altitude;pressure_sealevel;temperature;humidity
52291;BME280;39663;45.432;28.050;2023-08-07T00:06:37;99841.35;;;24.73;51.47
52291;BME280;39663;45.432;28.050;2023-08-07T00:07:08;99838.79;;;24.76;51.45
52291;BME280;39663;45.432;28.050;2023-08-07T00:07:40;99840.11;;;24.79;50.74
52291;BME280;39663;45.432;28.050;2023-08-07T00:08:11;99838.47;;;24.80;50.99
52291;BME280;39663;45.432;28.050;2023-08-07T00:08:43;99837.24;;;24.84;50.59
52291;BME280;39663;45.432;28.050;2023-08-07T00:09:14;99834.82;;;24.79;50.67
52291;BME280;39663;45.432;28.050;2023-08-07T00:09:46;99835.88;;;24.69;51.35
52291;BME280;39663;45.432;28.050;2023-08-07T00:10:17;99829.76;;;24.64;51.41
52291;BME280;39663;45.432;28.050;2023-08-07T00:10:49;99831.30;;;24.69;50.97
52291;BME280;39663;45.432;28.050;2023-08-07T00:11:20;99827.79;;;24.68;51.46
52291;BME280;39663;45.432;28.050;2023-08-07T00:11:52;99828.82;;;24.64;50.78
52291;BME280;39663;45.432;28.050;2023-08-07T00:12:23;99825.21;;;24.72;51.13
52291;BME280;39663;45.432;28.050;2023-08-07T00:12:54;99826.04;;;24.73;51.33
52291;BME280;39663;45.432;28.050;2023-08-07T00:13:26;99823.01;;;24.76;50.91
52291;BME280;39663;45.432;28.050;2023-08-07T00:13:58;99826.40;;;24.83;50.73
52291;BME280;39663;45.432;28.050;2023-08-07T00:14:29;99823.18;;;24.47;51.03
52291;BME280;39663;45.432;28.050;2023-08-07T00:15:01;99821.37;;;24.34;51.63
52291;BME280;39663;45.432;28.050;2023-08-07T00:15:32;99819.29;;;24.66;51.52
52291;BME280;39663;45.432;28.050;2023-08-07T00:16:04;99820.63;;;24.42;51.90
52291;BME280;39663;45.432;28.050;2023-08-07T00:16:36;99820.19;;;24.47;51.80
52291;BME280;39663;45.432;28.050;2023-08-07T00:17:07;99825.25;;;24.50;51.62
52291;BME280;39663;45.432;28.050;2023-08-07T00:17:39;99825.37;;;24.53;51.53
52291;BME280;39663;45.432;28.050;2023-08-07T00:18:10;99825.85;;;24.56;51.42
52291;BME280;39663;45.432;28.050;2023-08-07T00:18:41;99825.56;;;24.63;51.47
52291;BME280;39663;45.432;28.050;2023-08-07T00:19:13;99826.20;;;24.67;51.14
52291;BME280;39663;45.432;28.050;2023-08-07T00:19:44;99825.30;;;24.66;51.15
52291;BME280;39663;45.432;28.050;2023-08-07T00:20:16;99825.17;;;24.72;51.04
52291;BME280;39663;45.432;28.050;2023-08-07T00:20:47;99826.74;;;24.78;50.62
52291;BME280;39663;45.432;28.050;2023-08-07T00:21:18;99826.87;;;24.71;51.07
52291;BME280;39663;45.432;28.050;2023-08-07T00:21:50;99828.08;;;24.66;50.63
52291;BME280;39663;45.432;28.050;2023-08-07T00:22:21;99825.49;;;24.52;51.01
52291;BME280;39663;45.432;28.050;2023-08-07T00:22:53;99828.00;;;24.63;50.69
52291;BME280;39663;45.432;28.050;2023-08-07T00:23:24;99827.20;;;24.63;51.11
52291;BME280;39663;45.432;28.050;2023-08-07T00:23:55;99831.00;;;24.42;51.08
52291;BME280;39663;45.432;28.050;2023-08-07T00:24:27;99831.72;;;24.57;51.06
52291;BME280;39663;45.432;28.050;2023-08-07T00:24:58;99828.98;;;24.40;51.31
52291;BME280;39663;45.432;28.050;2023-08-07T00:25:30;99833.38;;;24.59;51.29
52291;BME280;39663;45.432;28.050;2023-08-07T00:26:01;99832.47;;;24.66;51.17
52291;BME280;39663;45.432;28.050;2023-08-07T00:26:33;99831.55;;;24.73;50.89
52291;BME280;39663;45.432;28.050;2023-08-07T00:27:05;99832.63;;;24.75;50.92
52291;BME280;39663;45.432;28.050;2023-08-07T00:27:36;99830.77;;;24.84;50.30
52291;BME280;39663;45.432;28.050;2023-08-07T00:28:07;99831.96;;;24.81;50.62
52291;BME280;39663;45.432;28.050;2023-08-07T00:28:39;99828.27;;;24.59;50.03
52291;BME280;39663;45.432;28.050;2023-08-07T00:29:10;99830.45;;;24.68;50.16
52291;BME280;39663;45.432;28.050;2023-08-07T00:29:42;99828.94;;;24.64;50.82
52291;BME280;39663;45.432;28.050;2023-08-07T00:30:13;99827.37;;;24.66;50.95
52291;BME280;39663;45.432;28.050;2023-08-07T00:30:45;99832.18;;;24.71;50.11
52291;BME280;39663;45.432;28.050;2023-08-07T00:31:16;99831.18;;;24.46;51.13
52291;BME280;39663;45.432;28.050;2023-08-07T00:31:48;99832.82;;;24.54;51.02
52291;BME280;39663;45.432;28.050;2023-08-07T00:32:19;99836.01;;;24.34;51.04
52291;BME280;39663;45.432;28.050;2023-08-07T00:32:51;99835.59;;;24.43;51.23
52291;BME280;39663;45.432;28.050;2023-08-07T00:33:22;99836.10;;;24.51;50.56
52291;BME280;39663;45.432;28.050;2023-08-07T00:33:54;99836.15;;;24.44;50.43
52291;BME280;39663;45.432;28.050;2023-08-07T00:34:25;99838.28;;;24.45;51.10
52291;BME280;39663;45.432;28.050;2023-08-07T00:34:56;99837.47;;;24.51;51.13
52291;BME280;39663;45.432;28.050;2023-08-07T00:35:28;99839.54;;;24.59;50.26
52291;BME280;39663;45.432;28.050;2023-08-07T00:35:59;99838.05;;;24.51;50.84
52291;BME280;39663;45.432;28.050;2023-08-07T00:36:31;99842.97;;;24.47;51.13
52291;BME280;39663;45.432;28.050;2023-08-07T00:37:02;99844.62;;;24.50;50.95
52291;BME280;39663;45.432;28.050;2023-08-07T00:37:34;99845.78;;;24.55;50.58
52291;BME280;39663;45.432;28.050;2023-08-07T00:38:06;99848.18;;;24.49;50.99
52291;BME280;39663;45.432;28.050;2023-08-07T00:38:37;99850.41;;;24.55;51.04
52291;BME280;39663;45.432;28.050;2023-08-07T00:39:09;99849.70;;;24.57;50.85
52291;BME280;39663;45.432;28.050;2023-08-07T00:39:40;99852.01;;;24.63;50.39
52291;BME280;39663;45.432;28.050;2023-08-07T00:40:12;99849.95;;;24.67;49.82
52291;BME280;39663;45.432;28.050;2023-08-07T00:40:44;99848.72;;;24.66;49.85
52291;BME280;39663;45.432;28.050;2023-08-07T00:41:16;99851.21;;;24.71;49.75
52291;BME280;39663;45.432;28.050;2023-08-07T00:41:48;99850.95;;;24.43;49.85
52291;BME280;39663;45.432;28.050;2023-08-07T00:42:20;99851.94;;;24.50;50.69
52291;BME280;39663;45.432;28.050;2023-08-07T00:42:51;99847.91;;;24.60;49.42
52291;BME280;39663;45.432;28.050;2023-08-07T00:43:23;99851.63;;;24.35;49.23
52291;BME280;39663;45.432;28.050;2023-08-07T00:43:54;99850.79;;;24.43;50.05
52291;BME280;39663;45.432;28.050;2023-08-07T00:44:26;99853.12;;;23.99;50.54
52291;BME280;39663;45.432;28.050;2023-08-07T00:44:57;99853.70;;;24.05;50.40
52291;BME280;39663;45.432;28.050;2023-08-07T00:45:29;99852.22;;;24.12;49.98
52291;BME280;39663;45.432;28.050;2023-08-07T00:46:00;99852.99;;;24.04;50.37
52291;BME280;39663;45.432;28.050;2023-08-07T00:46:32;99850.96;;;23.85;50.55
52291;BME280;39663;45.432;28.050;2023-08-07T00:47:05;99852.83;;;23.75;51.41
52291;BME280;39663;45.432;28.050;2023-08-07T00:47:37;99855.13;;;23.77;50.61
52291;BME280;39663;45.432;28.050;2023-08-07T00:48:09;99852.79;;;23.85;50.69
52291;BME280;39663;45.432;28.050;2023-08-07T00:48:41;99853.95;;;23.67;51.65
52291;BME280;39663;45.432;28.050;2023-08-07T00:49:13;99854.11;;;23.81;51.02
52291;BME280;39663;45.432;28.050;2023-08-07T00:49:45;99854.32;;;23.66;51.37
52291;BME280;39663;45.432;28.050;2023-08-07T00:50:16;99855.00;;;23.88;51.56
52291;BME280;39663;45.432;28.050;2023-08-07T00:50:48;99856.85;;;23.83;51.38
52291;BME280;39663;45.432;28.050;2023-08-07T00:51:20;99858.11;;;24.03;51.27
52291;BME280;39663;45.432;28.050;2023-08-07T00:51:52;99859.99;;;23.57;51.96
52291;BME280;39663;45.432;28.050;2023-08-07T00:52:23;99863.70;;;23.87;51.11
52291;BME280;39663;45.432;28.050;2023-08-07T00:52:55;99865.79;;;23.62;51.38
52291;BME280;39663;45.432;28.050;2023-08-07T00:53:27;99864.76;;;23.56;51.32
52291;BME280;39663;45.432;28.050;2023-08-07T00:53:59;99866.27;;;23.56;51.91
52291;BME280;39663;45.432;28.050;2023-08-07T00:54:32;99863.80;;;23.59;52.02
52291;BME280;39663;45.432;28.050;2023-08-07T00:55:04;99866.59;;;23.64;51.80
52291;BME280;39663;45.432;28.050;2023-08-07T00:55:36;99868.19;;;23.66;51.11
52291;BME280;39663;45.432;28.050;2023-08-07T00:56:08;99869.46;;;23.63;52.05
52291;BME280;39663;45.432;28.050;2023-08-07T00:56:39;99869.94;;;23.54;52.39
52291;BME280;39663;45.432;28.050;2023-08-07T00:57:12;99868.22;;;24.03;52.22
52291;BME280;39663;45.432;28.050;2023-08-07T00:57:44;99868.18;;;23.67;51.64
52291;BME280;39663;45.432;28.050;2023-08-07T00:58:16;99868.68;;;23.78;50.89
52291;BME280;39663;45.432;28.050;2023-08-07T00:58:47;99868.80;;;23.84;51.02
52291;BME280;39663;45.432;28.050;2023-08-07T00:59:19;99868.30;;;23.89;51.57
52291;BME280;39663;45.432;28.050;2023-08-07T00:59:51;99870.95;;;24.10;50.74
52291;BME280;39663;45.432;28.050;2023-08-07T01:00:23;99871.25;;;23.95;50.97
52291;BME280;39663;45.432;28.050;2023-08-07T01:00:55;99870.59;;;24.04;50.58
52291;BME280;39663;45.432;28.050;2023-08-07T01:01:27;99869.35;;;24.03;51.05
52291;BME280;39663;45.432;28.050;2023-08-07T01:01:59;99870.62;;;24.03;50.55
52291;BME280;39663;45.432;28.050;2023-08-07T01:02:31;99870.57;;;24.07;49.99
52291;BME280;39663;45.432;28.050;2023-08-07T01:03:06;99870.93;;;24.03;50.87
52291;BME280;39663;45.432;28.050;2023-08-07T01:03:38;99874.10;;;24.19;50.59
52291;BME280;39663;45.432;28.050;2023-08-07T01:04:10;99875.75;;;24.01;50.51
52291;BME280;39663;45.432;28.050;2023-08-07T01:04:42;99878.70;;;23.95;51.01
52291;BME280;39663;45.432;28.050;2023-08-07T01:05:13;99878.98;;;23.99;50.86
52291;BME280;39663;45.432;28.050;2023-08-07T01:05:45;99881.75;;;24.00;50.22
52291;BME280;39663;45.432;28.050;2023-08-07T01:06:16;99882.80;;;23.99;50.70
52291;BME280;39663;45.432;28.050;2023-08-07T01:06:48;99885.26;;;24.06;50.05
52291;BME280;39663;45.432;28.050;2023-08-07T01:07:19;99886.83;;;23.93;51.05
52291;BME280;39663;45.432;28.050;2023-08-07T01:07:51;99889.54;;;24.00;50.32
52291;BME280;39663;45.432;28.050;2023-08-07T01:08:24;99891.30;;;24.12;51.02
52291;BME280;39663;45.432;28.050;2023-08-07T01:08:57;99891.34;;;24.23;50.28
52291;BME280;39663;45.432;28.050;2023-08-07T01:09:29;99891.77;;;24.19;50.30
52291;BME280;39663;45.432;28.050;2023-08-07T01:10:00;99892.67;;;24.32;50.73
52291;BME280;39663;45.432;28.050;2023-08-07T01:10:46;99892.48;;;23.96;50.91
52291;BME280;39663;45.432;28.050;2023-08-07T01:11:28;99891.60;;;24.08;50.59
52291;BME280;39663;45.432;28.050;2023-08-07T01:12:12;99892.63;;;24.31;50.65
52291;BME280;39663;45.432;28.050;2023-08-07T01:12:51;99892.12;;;24.07;50.35
52291;BME280;39663;45.432;28.050;2023-08-07T01:13:32;99895.01;;;24.19;50.78
52291;BME280;39663;45.432;28.050;2023-08-07T01:14:11;99896.30;;;24.04;50.46
52291;BME280;39663;45.432;28.050;2023-08-07T01:14:52;99897.66;;;24.02;50.85
52291;BME280;39663;45.432;28.050;2023-08-07T01:15:31;99897.95;;;24.39;50.93
52291;BME280;39663;45.432;28.050;2023-08-07T01:16:10;99897.15;;;23.90;51.25
52291;BME280;39663;45.432;28.050;2023-08-07T01:16:47;99897.81;;;23.90;51.21
52291;BME280;39663;45.432;28.050;2023-08-07T01:17:22;99897.72;;;24.00;51.39
52291;BME280;39663;45.432;28.050;2023-08-07T01:17:54;99897.92;;;23.79;51.46
52291;BME280;39663;45.432;28.050;2023-08-07T01:18:27;99895.36;;;23.92;51.74
52291;BME280;39663;45.432;28.050;2023-08-07T01:19:01;99892.23;;;23.88;51.93
52291;BME280;39663;45.432;28.050;2023-08-07T01:19:35;99892.83;;;23.97;51.43
52291;BME280;39663;45.432;28.050;2023-08-07T01:20:07;99891.12;;;23.94;51.51
52291;BME280;39663;45.432;28.050;2023-08-07T01:20:39;99890.04;;;23.74;51.85
52291;BME280;39663;45.432;28.050;2023-08-07T01:21:18;99887.62;;;23.90;51.73
52291;BME280;39663;45.432;28.050;2023-08-07T01:21:49;99889.41;;;23.62;52.05
52291;BME280;39663;45.432;28.050;2023-08-07T01:22:21;99887.24;;;23.55;52.62
52291;BME280;39663;45.432;28.050;2023-08-07T01:22:53;99887.51;;;23.54;52.57
52291;BME280;39663;45.432;28.050;2023-08-07T01:23:24;99889.13;;;23.72;52.42
52291;BME280;39663;45.432;28.050;2023-08-07T01:23:56;99891.15;;;23.53;51.95
52291;BME280;39663;45.432;28.050;2023-08-07T01:24:27;99893.88;;;23.80;52.19
52291;BME280;39663;45.432;28.050;2023-08-07T01:24:59;99893.59;;;23.76;52.57
52291;BME280;39663;45.432;28.050;2023-08-07T01:25:31;99895.22;;;23.88;52.39
52291;BME280;39663;45.432;28.050;2023-08-07T01:26:02;99898.51;;;23.93;52.40
52291;BME280;39663;45.432;28.050;2023-08-07T01:26:35;99896.73;;;23.81;52.35
52291;BME280;39663;45.432;28.050;2023-08-07T01:27:22;99898.26;;;23.91;51.69
52291;BME280;39663;45.432;28.050;2023-08-07T01:28:02;99899.87;;;24.03;51.87
52291;BME280;39663;45.432;28.050;2023-08-07T01:28:38;99901.75;;;23.77;52.09
52291;BME280;39663;45.432;28.050;2023-08-07T01:29:19;99905.75;;;24.11;51.99
52291;BME280;39663;45.432;28.050;2023-08-07T01:29:57;99906.92;;;23.75;51.87
52291;BME280;39663;45.432;28.050;2023-08-07T01:30:35;99909.03;;;23.78;51.77
52291;BME280;39663;45.432;28.050;2023-08-07T01:31:10;99909.48;;;24.08;51.75
52291;BME280;39663;45.432;28.050;2023-08-07T01:31:46;99912.23;;;24.07;50.61
52291;BME280;39663;45.432;28.050;2023-08-07T01:32:24;99911.33;;;24.01;51.41
52291;BME280;39663;45.432;28.050;2023-08-07T01:33:01;99911.13;;;24.04;51.27
52291;BME280;39663;45.432;28.050;2023-08-07T01:33:40;99909.36;;;24.13;50.29
52291;BME280;39663;45.432;28.050;2023-08-07T01:34:17;99911.37;;;24.04;50.44
52291;BME280;39663;45.432;28.050;2023-08-07T01:34:52;99914.61;;;23.96;50.50
52291;BME280;39663;45.432;28.050;2023-08-07T01:35:29;99917.30;;;24.04;51.22
52291;BME280;39663;45.432;28.050;2023-08-07T01:36:03;99920.89;;;23.86;50.72
52291;BME280;39663;45.432;28.050;2023-08-07T01:36:39;99921.22;;;23.88;51.17
52291;BME280;39663;45.432;28.050;2023-08-07T01:37:12;99922.01;;;23.86;51.48
52291;BME280;39663;45.432;28.050;2023-08-07T01:37:45;99924.41;;;24.30;50.69
52291;BME280;39663;45.432;28.050;2023-08-07T01:38:18;99925.94;;;23.93;51.46
52291;BME280;39663;45.432;28.050;2023-08-07T01:38:53;99927.80;;;24.00;51.28
52291;BME280;39663;45.432;28.050;2023-08-07T01:39:26;99929.11;;;24.28;50.43
52291;BME280;39663;45.432;28.050;2023-08-07T01:39:59;99927.23;;;24.12;50.30
52291;BME280;39663;45.432;28.050;2023-08-07T01:40:31;99927.22;;;24.01;50.99
52291;BME280;39663;45.432;28.050;2023-08-07T01:41:04;99924.56;;;24.15;50.38
52291;BME280;39663;45.432;28.050;2023-08-07T01:41:36;99925.58;;;24.11;50.13
52291;BME280;39663;45.432;28.050;2023-08-07T01:42:08;99925.09;;;24.43;50.58
52291;BME280;39663;45.432;28.050;2023-08-07T01:42:40;99925.94;;;24.04;50.64
52291;BME280;39663;45.432;28.050;2023-08-07T01:43:12;99926.04;;;24.06;50.85
52291;BME280;39663;45.432;28.050;2023-08-07T01:43:43;99925.75;;;24.19;50.28
52291;BME280;39663;45.432;28.050;2023-08-07T01:44:15;99926.63;;;24.37;50.16
52291;BME280;39663;45.432;28.050;2023-08-07T01:44:47;99924.39;;;24.15;50.47
52291;BME280;39663;45.432;28.050;2023-08-07T01:45:24;99926.30;;;24.13;50.18
52291;BME280;39663;45.432;28.050;2023-08-07T01:45:56;99927.41;;;23.97;50.78
52291;BME280;39663;45.432;28.050;2023-08-07T01:46:27;99926.72;;;23.88;51.28
52291;BME280;39663;45.432;28.050;2023-08-07T01:46:59;99925.40;;;23.97;50.80
52291;BME280;39663;45.432;28.050;2023-08-07T01:47:30;99926.69;;;24.03;50.92
52291;BME280;39663;45.432;28.050;2023-08-07T01:48:02;99926.98;;;24.12;50.91
52291;BME280;39663;45.432;28.050;2023-08-07T01:48:33;99926.35;;;24.01;50.48
52291;BME280;39663;45.432;28.050;2023-08-07T01:49:05;99928.63;;;23.95;50.78
52291;BME280;39663;45.432;28.050;2023-08-07T01:49:37;99930.07;;;24.01;51.16
52291;BME280;39663;45.432;28.050;2023-08-07T01:50:09;99930.53;;;23.88;51.36
52291;BME280;39663;45.432;28.050;2023-08-07T01:50:41;99933.96;;;23.93;51.21
52291;BME280;39663;45.432;28.050;2023-08-07T01:51:13;99934.11;;;23.96;51.29
52291;BME280;39663;45.432;28.050;2023-08-07T01:51:44;99934.25;;;24.05;50.97
52291;BME280;39663;45.432;28.050;2023-08-07T01:52:16;99937.40;;;24.09;50.57
52291;BME280;39663;45.432;28.050;2023-08-07T01:52:48;99935.88;;;23.91;50.74
52291;BME280;39663;45.432;28.050;2023-08-07T01:53:19;99935.73;;;24.08;51.05
52291;BME280;39663;45.432;28.050;2023-08-07T01:53:51;99938.70;;;23.93;50.75
52291;BME280;39663;45.432;28.050;2023-08-07T01:54:22;99938.21;;;23.86;51.00
52291;BME280;39663;45.432;28.050;2023-08-07T01:54:54;99939.71;;;23.84;51.23
52291;BME280;39663;45.432;28.050;2023-08-07T01:55:25;99938.39;;;23.81;51.42
52291;BME280;39663;45.432;28.050;2023-08-07T01:55:57;99941.34;;;23.77;51.36
52291;BME280;39663;45.432;28.050;2023-08-07T01:56:28;99941.09;;;24.03;50.94
52291;BME280;39663;45.432;28.050;2023-08-07T01:57:00;99941.10;;;23.82;51.40
52291;BME280;39663;45.432;28.050;2023-08-07T01:57:31;99942.79;;;24.01;51.27
52291;BME280;39663;45.432;28.050;2023-08-07T01:58:03;99943.83;;;23.97;51.62
52291;BME280;39663;45.432;28.050;2023-08-07T01:58:34;99944.28;;;23.72;51.66
52291;BME280;39663;45.432;28.050;2023-08-07T01:59:06;99943.54;;;23.90;51.60
52291;BME280;39663;45.432;28.050;2023-08-07T01:59:38;99947.30;;;23.88;51.41
52291;BME280;39663;45.432;28.050;2023-08-07T02:00:10;99947.92;;;23.90;51.42
52291;BME280;39663;45.432;28.050;2023-08-07T02:00:42;99945.20;;;24.12;51.15
52291;BME280;39663;45.432;28.050;2023-08-07T02:01:13;99947.68;;;24.20;51.00
52291;BME280;39663;45.432;28.050;2023-08-07T02:01:45;99942.95;;;24.17;51.10
52291;BME280;39663;45.432;28.050;2023-08-07T02:02:17;99942.15;;;24.00;51.00
52291;BME280;39663;45.432;28.050;2023-08-07T02:02:48;99943.99;;;24.02;51.05
52291;BME280;39663;45.432;28.050;2023-08-07T02:03:20;99942.94;;;24.07;51.09
52291;BME280;39663;45.432;28.050;2023-08-07T02:03:52;99944.80;;;24.13;50.92
52291;BME280;39663;45.432;28.050;2023-08-07T02:04:23;99944.51;;;24.35;50.85
52291;BME280;39663;45.432;28.050;2023-08-07T02:04:55;99944.21;;;24.13;50.98
52291;BME280;39663;45.432;28.050;2023-08-07T02:05:26;99943.32;;;24.19;51.04
52291;BME280;39663;45.432;28.050;2023-08-07T02:05:57;99945.14;;;24.19;50.87
52291;BME280;39663;45.432;28.050;2023-08-07T02:06:29;99946.34;;;24.22;50.88
52291;BME280;39663;45.432;28.050;2023-08-07T02:07:01;99943.50;;;24.15;50.97
52291;BME280;39663;45.432;28.050;2023-08-07T02:07:32;99942.75;;;24.23;50.85
52291;BME280;39663;45.432;28.050;2023-08-07T02:08:04;99943.10;;;24.22;50.92
52291;BME280;39663;45.432;28.050;2023-08-07T02:08:35;99941.76;;;24.25;50.89
52291;BME280;39663;45.432;28.050;2023-08-07T02:09:07;99941.28;;;24.11;50.78
52291;BME280;39663;45.432;28.050;2023-08-07T02:09:38;99940.99;;;24.39;50.49
52291;BME280;39663;45.432;28.050;2023-08-07T02:10:10;99943.74;;;24.37;50.37
52291;BME280;39663;45.432;28.050;2023-08-07T02:10:41;99940.49;;;24.30;50.72
52291;BME280;39663;45.432;28.050;2023-08-07T02:11:13;99939.16;;;24.22;50.91
52291;BME280;39663;45.432;28.050;2023-08-07T02:11:45;99936.17;;;24.29;50.78
52291;BME280;39663;45.432;28.050;2023-08-07T02:12:16;99936.71;;;24.30;50.79
52291;BME280;39663;45.432;28.050;2023-08-07T02:12:48;99936.61;;;24.38;50.62
52291;BME280;39663;45.432;28.050;2023-08-07T02:13:19;99935.30;;;24.38;50.76
52291;BME280;39663;45.432;28.050;2023-08-07T02:13:51;99936.15;;;24.33;50.80
52291;BME280;39663;45.432;28.050;2023-08-07T02:14:22;99938.24;;;24.43;50.60
52291;BME280;39663;45.432;28.050;2023-08-07T02:14:54;99938.74;;;24.39;50.66
52291;BME280;39663;45.432;28.050;2023-08-07T02:15:25;99939.74;;;24.41;50.59
52291;BME280;39663;45.432;28.050;2023-08-07T02:15:57;99941.54;;;24.50;50.32
52291;BME280;39663;45.432;28.050;2023-08-07T02:16:28;99939.99;;;24.37;50.69
52291;BME280;39663;45.432;28.050;2023-08-07T02:17:00;99941.08;;;24.57;50.75
52291;BME280;39663;45.432;28.050;2023-08-07T02:17:31;99944.02;;;24.41;50.69
52291;BME280;39663;45.432;28.050;2023-08-07T02:18:03;99942.82;;;24.42;50.68
52291;BME280;39663;45.432;28.050;2023-08-07T02:18:34;99944.35;;;24.46;50.31
52291;BME280;39663;45.432;28.050;2023-08-07T02:19:06;99941.97;;;24.43;50.39
52291;BME280;39663;45.432;28.050;2023-08-07T02:19:37;99941.59;;;24.38;50.45
52291;BME280;39663;45.432;28.050;2023-08-07T02:20:10;99941.85;;;24.35;50.87
52291;BME280;39663;45.432;28.050;2023-08-07T02:20:41;99944.12;;;24.24;50.85
52291;BME280;39663;45.432;28.050;2023-08-07T02:21:13;99941.18;;;24.25;50.74
52291;BME280;39663;45.432;28.050;2023-08-07T02:21:44;99941.01;;;24.24;50.67
52291;BME280;39663;45.432;28.050;2023-08-07T02:22:16;99942.12;;;24.13;51.16
52291;BME280;39663;45.432;28.050;2023-08-07T02:22:47;99941.58;;;24.17;51.20
52291;BME280;39663;45.432;28.050;2023-08-07T02:23:19;99941.77;;;24.14;50.99
52291;BME280;39663;45.432;28.050;2023-08-07T02:23:50;99944.00;;;24.10;51.13
52291;BME280;39663;45.432;28.050;2023-08-07T02:24:22;99944.75;;;24.12;51.02
52291;BME280;39663;45.432;28.050;2023-08-07T02:24:53;99946.72;;;23.93;51.57
52291;BME280;39663;45.432;28.050;2023-08-07T02:25:25;99943.82;;;23.97;51.42
52291;BME280;39663;45.432;28.050;2023-08-07T02:25:56;99949.20;;;23.91;51.45
52291;BME280;39663;45.432;28.050;2023-08-07T02:26:28;99947.41;;;23.83;51.82
52291;BME280;39663;45.432;28.050;2023-08-07T02:27:00;99947.98;;;24.07;51.77
52291;BME280;39663;45.432;28.050;2023-08-07T02:27:31;99948.95;;;24.04;51.61
52291;BME280;39663;45.432;28.050;2023-08-07T02:28:03;99948.56;;;23.97;51.44
52291;BME280;39663;45.432;28.050;2023-08-07T02:28:34;99946.64;;;23.89;51.44
52291;BME280;39663;45.432;28.050;2023-08-07T02:29:06;99943.98;;;23.88;51.60
52291;BME280;39663;45.432;28.050;2023-08-07T02:29:37;99945.43;;;23.87;51.62
52291;BME280;39663;45.432;28.050;2023-08-07T02:30:10;99942.57;;;23.92;51.99
52291;BME280;39663;45.432;28.050;2023-08-07T02:30:41;99941.65;;;24.14;51.94
52291;BME280;39663;45.432;28.050;2023-08-07T02:31:13;99941.68;;;23.97;52.10
52291;BME280;39663;45.432;28.050;2023-08-07T02:31:44;99944.68;;;23.72;51.93
52291;BME280;39663;45.432;28.050;2023-08-07T02:32:16;99943.56;;;23.82;52.12
52291;BME280;39663;45.432;28.050;2023-08-07T02:32:47;99947.73;;;23.98;52.23
52291;BME280;39663;45.432;28.050;2023-08-07T02:33:19;99950.00;;;23.79;52.46
52291;BME280;39663;45.432;28.050;2023-08-07T02:33:51;99949.09;;;23.79;52.74
52291;BME280;39663;45.432;28.050;2023-08-07T02:34:22;99948.91;;;23.81;52.68
52291;BME280;39663;45.432;28.050;2023-08-07T02:34:54;99950.49;;;23.64;52.89
52291;BME280;39663;45.432;28.050;2023-08-07T02:35:25;99953.45;;;23.49;53.05
52291;BME280;39663;45.432;28.050;2023-08-07T02:35:57;99954.76;;;23.39;53.16
52291;BME280;39663;45.432;28.050;2023-08-07T02:36:28;99957.31;;;23.32;53.42
52291;BME280;39663;45.432;28.050;2023-08-07T02:37:00;99957.81;;;23.47;53.37
52291;BME280;39663;45.432;28.050;2023-08-07T02:37:31;99955.72;;;23.46;53.56
52291;BME280;39663;45.432;28.050;2023-08-07T02:38:02;99959.30;;;23.39;53.58
52291;BME280;39663;45.432;28.050;2023-08-07T02:38:34;99961.11;;;23.30;53.71
52291;BME280;39663;45.432;28.050;2023-08-07T02:39:07;99960.17;;;23.38;53.81
52291;BME280;39663;45.432;28.050;2023-08-07T02:39:38;99960.16;;;23.38;53.69
52291;BME280;39663;45.432;28.050;2023-08-07T02:40:11;99961.62;;;23.31;54.03
52291;BME280;39663;45.432;28.050;2023-08-07T02:40:43;99963.40;;;23.43;53.72
52291;BME280;39663;45.432;28.050;2023-08-07T02:41:14;99963.83;;;23.28;53.60
52291;BME280;39663;45.432;28.050;2023-08-07T02:41:46;99967.37;;;23.40;53.93
52291;BME280;39663;45.432;28.050;2023-08-07T02:42:18;99966.22;;;23.22;53.98
52291;BME280;39663;45.432;28.050;2023-08-07T02:42:49;99967.08;;;23.49;53.78
52291;BME280;39663;45.432;28.050;2023-08-07T02:43:21;99969.75;;;23.34;53.84
52291;BME280;39663;45.432;28.050;2023-08-07T02:43:53;99971.77;;;23.32;53.81
52291;BME280;39663;45.432;28.050;2023-08-07T02:44:24;99975.77;;;23.60;53.91
52291;BME280;39663;45.432;28.050;2023-08-07T02:44:55;99976.01;;;23.40;53.89
52291;BME280;39663;45.432;28.050;2023-08-07T02:45:27;99976.50;;;23.54;54.01
52291;BME280;39663;45.432;28.050;2023-08-07T02:45:58;99974.13;;;23.25;54.13
52291;BME280;39663;45.432;28.050;2023-08-07T02:46:30;99978.47;;;23.40;54.29
52291;BME280;39663;45.432;28.050;2023-08-07T02:47:01;99977.38;;;23.42;54.41
52291;BME280;39663;45.432;28.050;2023-08-07T02:47:33;99977.99;;;23.39;54.60
52291;BME280;39663;45.432;28.050;2023-08-07T02:48:05;99978.34;;;23.37;54.78
52291;BME280;39663;45.432;28.050;2023-08-07T02:48:36;99978.26;;;23.30;54.87
52291;BME280;39663;45.432;28.050;2023-08-07T02:49:08;99978.56;;;23.26;54.86
52291;BME280;39663;45.432;28.050;2023-08-07T02:49:39;99978.92;;;23.26;54.81
52291;BME280;39663;45.432;28.050;2023-08-07T02:50:11;99980.12;;;23.11;54.75
52291;BME280;39663;45.432;28.050;2023-08-07T02:50:43;99981.09;;;23.15;54.62
52291;BME280;39663;45.432;28.050;2023-08-07T02:51:14;99982.67;;;23.45;54.56
52291;BME280;39663;45.432;28.050;2023-08-07T02:51:45;99984.91;;;23.52;54.49
52291;BME280;39663;45.432;28.050;2023-08-07T02:52:17;99985.89;;;23.47;54.60
52291;BME280;39663;45.432;28.050;2023-08-07T02:52:49;99989.13;;;23.43;54.68
52291;BME280;39663;45.432;28.050;2023-08-07T02:53:21;99988.21;;;23.40;54.65
52291;BME280;39663;45.432;28.050;2023-08-07T02:53:52;99988.19;;;23.36;54.78
52291;BME280;39663;45.432;28.050;2023-08-07T02:54:24;99991.67;;;23.44;54.42
52291;BME280;39663;45.432;28.050;2023-08-07T02:54:55;99995.55;;;23.57;54.45
52291;BME280;39663;45.432;28.050;2023-08-07T02:55:27;99995.52;;;23.48;54.42